Time;durP1;ratioP1;P1;durP2;ratioP2;P2;SDS_P1;SDS_P2;PMS_P1;PMS_P2;Temp;Humidity;BMP_temperature;BMP_pressure;BME280_temperature;BME280_humidity;BME280_pressure;Samples;Min_cycle;Max_cycle;Signal;HPM_P1;HPM_P2
2023/08/07 00:00:02;;;;;;;6.85;6.15;;;21.40;99.90;;;;;;5291062;28;20377;-72
2023/08/07 00:02:33;;;;;;;12.00;7.45;;;21.50;99.90;;;;;;5291065;28;20027;-72
2023/08/07 00:05:05;;;;;;;10.27;6.80;;;21.30;99.90;;;;;;5272564;28;20023;-73
2023/08/07 00:07:36;;;;;;;6.50;5.50;;;21.20;99.90;;;;;;5290720;28;20020;-72
2023/08/07 00:10:07;;;;;;;6.63;5.60;;;21.30;99.90;;;;;;5290690;28;20482;-72
2023/08/07 00:12:38;;;;;;;7.40;5.93;;;21.30;99.90;;;;;;5272524;28;20042;-72
2023/08/07 00:15:10;;;;;;;8.05;6.22;;;21.40;99.90;;;;;;5290310;28;20122;-78
2023/08/07 00:17:41;;;;;;;8.32;6.07;;;21.40;99.90;;;;;;5290480;28;20517;-72
2023/08/07 00:20:12;;;;;;;6.63;5.38;;;21.30;99.90;;;;;;5272346;28;20055;-72
2023/08/07 00:22:43;;;;;;;7.20;5.47;;;21.30;99.90;;;;;;5290572;28;20679;-72
2023/08/07 00:25:14;;;;;;;8.43;5.75;;;21.20;99.90;;;;;;5290465;28;20430;-73
2023/08/07 00:27:45;;;;;;;18.77;4.90;;;21.20;99.90;;;;;;5290324;28;20059;-74
2023/08/07 00:30:15;;;;;;;36.33;5.57;;;21.10;99.90;;;;;;5289915;28;20027;-72
2023/08/07 00:32:46;;;;;;;14.75;13.48;;;21.10;99.90;;;;;;5289845;28;20020;-72
2023/08/07 00:35:17;;;;;;;6.43;5.65;;;21.20;99.90;;;;;;5270626;28;20046;-73
2023/08/07 00:37:48;;;;;;;22.42;6.05;;;21.10;99.90;;;;;;5289186;28;20020;-72
2023/08/07 00:40:18;;;;;;;7.28;5.43;;;21.10;99.90;;;;;;5289363;28;20034;-72
2023/08/07 00:42:49;;;;;;;10.38;5.30;;;21.10;99.90;;;;;;5270823;28;20020;-72
2023/08/07 00:45:21;;;;;;;5.38;4.57;;;21.10;99.90;;;;;;5288834;28;20063;-72
2023/08/07 00:47:52;;;;;;;6.63;6.03;;;21.10;99.90;;;;;;5271221;28;20015;-72
2023/08/07 00:50:22;;;;;;;5.88;5.32;;;21.00;99.90;;;;;;5289960;28;20045;-72
2023/08/07 00:52:53;;;;;;;6.82;5.70;;;21.10;99.90;;;;;;5289828;28;20427;-73
2023/08/07 00:55:24;;;;;;;8.48;7.72;;;21.10;99.90;;;;;;5289578;28;20036;-72
2023/08/07 00:57:56;;;;;;;5.72;4.78;;;21.10;99.90;;;;;;5290063;28;20024;-72
2023/08/07 01:00:30;;;;;;;5.40;4.90;;;21.00;99.90;;;;;;5289828;28;20505;-72
2023/08/07 01:03:02;;;;;;;6.57;4.97;;;21.00;99.90;;;;;;5289844;28;20022;-72
2023/08/07 01:05:33;;;;;;;5.68;4.45;;;21.00;99.90;;;;;;5289419;28;20023;-72
2023/08/07 01:08:04;;;;;;;5.05;4.65;;;21.00;99.90;;;;;;5271447;28;20019;-73
2023/08/07 01:10:39;;;;;;;5.93;5.40;;;21.00;99.90;;;;;;5289324;28;20106;-73
2023/08/07 01:13:32;;;;;;;5.32;4.82;;;21.10;99.90;;;;;;5289577;28;20378;-72
2023/08/07 01:16:13;;;;;;;5.90;4.63;;;21.10;99.90;;;;;;5276463;28;20843;-72
2023/08/07 01:18:46;;;;;;;6.38;5.30;;;21.10;99.90;;;;;;5268308;28;20462;-72
2023/08/07 01:21:18;;;;;;;8.10;5.40;;;21.10;99.90;;;;;;5250320;28;20451;-72
2023/08/07 01:23:49;;;;;;;6.38;4.88;;;21.10;99.90;;;;;;5268710;28;20024;-72
2023/08/07 01:26:21;;;;;;;7.65;4.82;;;21.10;99.90;;;;;;5267883;28;20031;-72
2023/08/07 01:29:01;;;;;;;6.30;4.90;;;21.00;99.90;;;;;;5267650;28;20023;-72
2023/08/07 01:31:36;;;;;;;5.55;5.00;;;20.80;99.90;;;;;;5267354;28;20044;-72
2023/08/07 01:34:10;;;;;;;4.80;4.38;;;20.90;99.90;;;;;;5267305;28;20055;-74
2023/08/07 01:36:41;;;;;;;5.60;4.72;;;20.90;99.90;;;;;;5267092;28;20051;-78
2023/08/07 01:39:13;;;;;;;5.47;4.70;;;20.90;99.90;;;;;;5266791;28;20056;-72
2023/08/07 01:41:44;;;;;;;5.50;4.82;;;20.90;99.90;;;;;;5267157;28;20023;-73
2023/08/07 01:44:16;;;;;;;6.72;5.30;;;21.00;99.90;;;;;;5249593;28;20032;-72
2023/08/07 01:46:46;;;;;;;10.13;4.55;;;20.90;99.90;;;;;;5268424;28;20401;-78
2023/08/07 01:49:17;;;;;;;6.88;4.40;;;21.10;99.90;;;;;;5268211;28;20081;-72
2023/08/07 01:51:48;;;;;;;5.30;4.68;;;21.00;99.90;;;;;;5268234;28;20606;-72
2023/08/07 01:54:19;;;;;;;5.47;4.30;;;20.90;99.90;;;;;;5267959;28;20157;-72
2023/08/07 01:56:49;;;;;;;6.10;4.25;;;20.90;99.90;;;;;;5249602;28;20028;-72
2023/08/07 01:59:20;;;;;;;5.93;4.40;;;20.90;99.90;;;;;;5249925;28;20028;-72
2023/08/07 02:01:51;;;;;;;5.72;4.55;;;20.90;99.90;;;;;;5267926;28;20020;-72
2023/08/07 02:04:22;;;;;;;4.30;4.00;;;21.00;99.90;;;;;;5249788;28;20717;-77
2023/08/07 02:06:53;;;;;;;4.80;4.32;;;20.80;99.90;;;;;;5267600;28;20070;-72
2023/08/07 02:09:23;;;;;;;5.97;4.40;;;20.90;99.90;;;;;;5268149;28;20437;-72
2023/08/07 02:11:54;;;;;;;4.97;4.43;;;20.80;99.90;;;;;;5267904;28;20406;-72
2023/08/07 02:14:25;;;;;;;7.15;4.35;;;20.60;99.90;;;;;;5267656;28;20044;-73
2023/08/07 02:16:56;;;;;;;5.85;4.40;;;20.50;99.90;;;;;;5268053;28;20039;-72
2023/08/07 02:19:27;;;;;;;5.38;4.50;;;20.30;99.90;;;;;;5267872;28;20031;-72
2023/08/07 02:21:58;;;;;;;6.60;4.25;;;20.40;99.90;;;;;;5269395;28;20020;-72
2023/08/07 02:24:28;;;;;;;5.20;4.45;;;20.50;99.90;;;;;;5271169;28;20028;-72
2023/08/07 02:26:59;;;;;;;5.78;4.50;;;20.70;99.90;;;;;;5270510;28;20016;-73
2023/08/07 02:29:33;;;;;;;4.88;4.38;;;20.60;99.90;;;;;;5270707;28;20098;-73
2023/08/07 02:32:05;;;;;;;6.75;4.90;;;20.60;99.90;;;;;;5270496;28;20097;-72
2023/08/07 02:34:35;;;;;;;8.10;5.50;;;20.50;99.90;;;;;;5252485;28;20028;-72
2023/08/07 02:37:10;;;;;;;6.00;5.05;;;20.30;99.90;;;;;;5252339;28;20097;-77
2023/08/07 02:39:40;;;;;;;6.18;5.63;;;20.30;99.90;;;;;;5253006;28;20027;-73
2023/08/07 02:42:13;;;;;;;8.43;6.28;;;20.40;99.90;;;;;;5271532;28;20024;-72
2023/08/07 02:44:47;;;;;;;6.85;6.25;;;20.40;99.90;;;;;;5271092;28;20383;-73
2023/08/07 02:47:18;;;;;;;6.85;6.35;;;20.30;99.90;;;;;;5271574;28;20039;-72
2023/08/07 02:49:48;;;;;;;6.45;5.55;;;20.20;99.90;;;;;;5271384;28;20467;-72
2023/08/07 02:52:19;;;;;;;6.50;6.00;;;20.10;99.90;;;;;;5271188;28;20419;-72
2023/08/07 02:54:50;;;;;;;28.83;5.22;;;20.00;99.90;;;;;;5271201;28;20035;-72
2023/08/07 02:57:21;;;;;;;6.95;5.10;;;19.80;99.90;;;;;;5271167;28;20028;-72
2023/08/07 02:59:51;;;;;;;6.70;4.72;;;19.60;99.90;;;;;;5271070;28;20020;-72
2023/08/07 03:02:22;;;;;;;5.95;5.35;;;19.90;99.90;;;;;;5271290;28;20060;-72
2023/08/07 03:04:53;;;;;;;6.55;5.05;;;19.80;99.90;;;;;;5271188;28;20419;-72
2023/08/07 03:07:24;;;;;;;6.53;5.95;;;19.80;99.90;;;;;;5252614;28;20081;-72
2023/08/07 03:09:55;;;;;;;7.03;5.68;;;19.60;99.90;;;;;;5270043;28;20035;-72
2023/08/07 03:12:26;;;;;;;5.55;4.97;;;19.50;99.90;;;;;;5270633;28;20021;-72
2023/08/07 03:14:57;;;;;;;8.73;4.32;;;19.50;99.90;;;;;;5269706;28;20093;-73
2023/08/07 03:17:28;;;;;;;6.50;4.40;;;19.50;99.90;;;;;;5269754;28;20031;-74
2023/08/07 03:19:58;;;;;;;6.75;4.70;;;19.70;99.90;;;;;;5269930;28;20043;-74
2023/08/07 03:22:29;;;;;;;6.13;5.07;;;19.70;99.90;;;;;;5288901;28;20024;-72
2023/08/07 03:25:00;;;;;;;9.35;5.72;;;19.90;99.90;;;;;;5290705;28;20036;-72
2023/08/07 03:27:31;;;;;;;10.50;5.85;;;19.90;99.90;;;;;;5290789;28;20035;-72
2023/08/07 03:30:02;;;;;;;9.13;7.25;;;20.00;99.90;;;;;;5291578;28;20076;-73
2023/08/07 03:32:33;;;;;;;7.25;6.55;;;20.00;99.90;;;;;;5291633;28;20104;-73
2023/08/07 03:35:04;;;;;;;9.32;6.40;;;20.10;99.90;;;;;;5291603;28;20118;-73
2023/08/07 03:37:35;;;;;;;16.35;6.82;;;20.20;99.90;;;;;;5291724;28;20065;-72
2023/08/07 03:40:06;;;;;;;9.05;7.13;;;20.30;99.90;;;;;;5284691;28;20466;-76
2023/08/07 03:42:37;;;;;;;18.58;6.75;;;20.20;99.90;;;;;;5269754;28;20062;-73
2023/08/07 03:45:08;;;;;;;8.63;6.38;;;20.20;99.90;;;;;;5269396;28;20075;-73
2023/08/07 03:47:39;;;;;;;7.32;6.25;;;20.00;99.90;;;;;;5269904;28;20024;-73
2023/08/07 03:50:10;;;;;;;7.10;5.75;;;20.10;99.90;;;;;;5270114;28;20051;-73
2023/08/07 03:52:40;;;;;;;7.75;6.05;;;20.30;99.90;;;;;;5269992;28;20027;-73
2023/08/07 03:55:11;;;;;;;6.35;5.30;;;20.30;99.90;;;;;;5251901;28;20040;-73
2023/08/07 03:57:42;;;;;;;6.97;6.28;;;20.40;99.90;;;;;;5270163;28;20021;-73
2023/08/07 04:00:13;;;;;;;9.00;6.30;;;20.60;99.90;;;;;;5269951;28;20096;-73
2023/08/07 04:02:45;;;;;;;9.63;7.75;;;20.50;99.90;;;;;;5270047;28;20019;-73
2023/08/07 04:05:16;;;;;;;8.05;7.25;;;20.60;99.90;;;;;;5269553;28;20031;-73
2023/08/07 04:07:46;;;;;;;9.60;7.70;;;20.80;99.90;;;;;;5269642;28;20021;-73
2023/08/07 04:10:17;;;;;;;12.63;9.43;;;20.90;99.90;;;;;;5268849;28;20434;-74
2023/08/07 04:12:48;;;;;;;9.50;8.57;;;21.00;99.90;;;;;;5268859;28;20103;-73
2023/08/07 04:15:20;;;;;;;10.55;7.18;;;20.90;99.90;;;;;;5268674;28;20139;-73
2023/08/07 04:17:51;;;;;;;10.90;7.25;;;21.10;99.90;;;;;;5268613;28;20088;-73
2023/08/07 04:20:22;;;;;;;8.43;7.63;;;21.20;99.90;;;;;;5268560;28;20464;-74
2023/08/07 04:22:53;;;;;;;11.93;7.25;;;21.30;99.90;;;;;;5268664;28;20031;-74
2023/08/07 04:25:24;;;;;;;7.45;6.75;;;21.40;99.90;;;;;;5269431;28;20468;-73
2023/08/07 04:27:55;;;;;;;7.38;6.60;;;21.50;99.90;;;;;;5269778;28;20039;-74
2023/08/07 04:30:25;;;;;;;8.32;6.13;;;21.60;99.90;;;;;;5269552;28;20017;-76
2023/08/07 04:32:56;;;;;;;6.13;4.90;;;21.70;99.90;;;;;;5251120;28;20532;-74
2023/08/07 04:35:27;;;;;;;5.28;4.78;;;21.80;99.90;;;;;;5269083;28;20028;-73
2023/08/07 04:37:58;;;;;;;5.65;5.15;;;21.80;99.90;;;;;;5268253;28;20062;-74
2023/08/07 04:40:29;;;;;;;8.13;5.50;;;22.00;99.90;;;;;;5285312;28;20573;-74
2023/08/07 04:43:00;;;;;;;8.98;5.70;;;22.00;99.90;;;;;;5289405;28;20024;-74
2023/08/07 04:45:31;;;;;;;6.03;5.40;;;22.20;99.90;;;;;;5288482;28;20051;-73
2023/08/07 04:48:02;;;;;;;9.77;5.40;;;22.20;99.90;;;;;;5289118;28;20556;-73
2023/08/07 04:50:33;;;;;;;8.98;5.22;;;22.40;99.90;;;;;;5289039;28;20023;-74
2023/08/07 04:53:07;;;;;;;6.55;5.65;;;22.30;99.90;;;;;;5271883;28;20028;-75
2023/08/07 04:55:38;;;;;;;7.72;5.28;;;22.60;99.90;;;;;;5289759;28;20085;-73
2023/08/07 04:58:09;;;;;;;7.00;5.53;;;22.50;99.90;;;;;;5289611;28;20046;-73
2023/08/07 05:00:40;;;;;;;7.85;5.80;;;22.80;99.90;;;;;;5289525;28;20028;-73
2023/08/07 05:03:11;;;;;;;7.93;5.78;;;22.70;99.90;;;;;;5288926;28;20488;-73
2023/08/07 05:05:42;;;;;;;8.13;4.60;;;22.80;99.90;;;;;;5288635;28;20092;-73
2023/08/07 05:08:12;;;;;;;8.27;5.13;;;23.00;99.90;;;;;;5288890;28;20039;-74
2023/08/07 05:10:43;;;;;;;10.77;5.30;;;23.20;99.90;;;;;;5288977;28;20023;-73
2023/08/07 05:13:14;;;;;;;6.72;4.90;;;23.30;99.90;;;;;;5288705;28;20106;-73
2023/08/07 05:15:48;;;;;;;8.38;4.80;;;23.40;99.90;;;;;;5288487;28;20165;-73
2023/08/07 05:18:19;;;;;;;6.47;4.93;;;23.50;99.90;;;;;;5289052;28;20390;-73
2023/08/07 05:20:50;;;;;;;7.18;4.97;;;23.60;99.90;;;;;;5289425;28;20026;-74
2023/08/07 05:23:20;;;;;;;10.00;5.38;;;23.70;99.90;;;;;;5288754;28;20374;-74
2023/08/07 05:25:52;;;;;;;8.13;6.82;;;23.80;99.90;;;;;;5288635;28;20049;-74
2023/08/07 05:28:23;;;;;;;8.02;7.32;;;24.00;99.90;;;;;;5288655;28;20016;-73
2023/08/07 05:30:53;;;;;;;9.73;8.73;;;24.00;99.90;;;;;;5288341;28;20528;-74
2023/08/07 05:33:24;;;;;;;7.03;6.32;;;23.80;99.90;;;;;;5288613;28;20024;-74
2023/08/07 05:35:55;;;;;;;7.70;6.90;;;23.80;99.90;;;;;;5288031;28;20502;-76
2023/08/07 05:38:26;;;;;;;9.57;7.80;;;24.00;99.90;;;;;;5289786;28;20108;-77
2023/08/07 05:40:57;;;;;;;9.07;8.27;;;24.10;99.90;;;;;;5289268;28;20103;-73
2023/08/07 05:43:28;;;;;;;11.65;7.05;;;24.20;99.90;;;;;;5289242;28;20020;-74
2023/08/07 05:45:58;;;;;;;8.45;7.65;;;24.20;99.90;;;;;;5288091;28;20051;-75
2023/08/07 05:48:29;;;;;;;9.68;8.63;;;24.30;99.90;;;;;;5288786;28;20035;-74
2023/08/07 05:51:00;;;;;;;11.40;10.30;;;24.40;99.90;;;;;;5270824;28;20821;-74
2023/08/07 05:53:31;;;;;;;13.13;8.25;;;24.50;99.90;;;;;;5289219;28;20141;-75
2023/08/07 05:56:01;;;;;;;12.13;9.07;;;24.60;99.90;;;;;;5271445;28;20103;-74
2023/08/07 05:58:32;;;;;;;12.23;10.20;;;24.60;99.90;;;;;;5293365;28;20429;-74
2023/08/07 06:01:03;;;;;;;12.23;9.27;;;24.70;99.90;;;;;;5275205;28;20042;-74
2023/08/07 06:03:34;;;;;;;10.15;7.25;;;24.60;99.90;;;;;;5293769;28;20027;-75
2023/08/07 06:06:05;;;;;;;9.90;6.47;;;24.70;99.90;;;;;;5292954;28;20012;-74
2023/08/07 06:08:35;;;;;;;12.60;6.60;;;24.70;99.90;;;;;;5293134;28;20069;-74
2023/08/07 06:11:08;;;;;;;9.07;6.47;;;24.80;99.90;;;;;;5293010;28;20137;-75
2023/08/07 06:13:40;;;;;;;9.05;8.07;;;25.20;99.90;;;;;;5292611;28;20035;-74
2023/08/07 06:16:11;;;;;;;8.93;8.10;;;25.40;99.90;;;;;;5291849;28;20035;-74
2023/08/07 06:18:42;;;;;;;9.95;8.85;;;25.80;99.90;;;;;;5292300;28;20621;-75
2023/08/07 06:21:12;;;;;;;10.18;9.18;;;25.90;99.90;;;;;;5293080;28;20028;-74
2023/08/07 06:23:43;;;;;;;9.82;8.82;;;25.90;99.90;;;;;;5293007;28;20020;-74
2023/08/07 06:26:14;;;;;;;10.60;9.70;;;26.20;99.90;;;;;;5292537;28;20026;-74
2023/08/07 06:28:45;;;;;;;10.32;9.48;;;26.20;99.90;;;;;;5292209;28;20485;-74
2023/08/07 06:31:16;;;;;;;11.80;10.55;;;25.90;99.90;;;;;;5292838;28;20028;-74
2023/08/07 06:33:47;;;;;;;14.30;11.93;;;25.90;99.90;;;;;;5292858;27;20354;-74
2023/08/07 06:36:18;;;;;;;14.15;10.63;;;25.80;99.90;;;;;;5257183;28;20031;-74
2023/08/07 06:38:48;;;;;;;12.77;11.77;;;25.90;99.90;;;;;;5292602;28;20054;-74
2023/08/07 06:41:19;;;;;;;11.98;10.98;;;25.90;99.90;;;;;;5292125;28;20020;-74
2023/08/07 06:43:51;;;;;;;12.23;10.90;;;26.00;99.90;;;;;;5273890;28;20431;-73
2023/08/07 06:46:26;;;;;;;12.30;11.27;;;26.10;99.90;;;;;;5292132;28;20531;-74
2023/08/07 06:48:57;;;;;;;11.20;9.95;;;26.20;99.90;;;;;;5292420;28;20439;-74
2023/08/07 06:51:28;;;;;;;11.60;10.60;;;26.20;99.90;;;;;;5292894;28;20098;-73
2023/08/07 06:53:58;;;;;;;11.23;10.18;;;26.10;99.90;;;;;;5292857;28;20027;-75
2023/08/07 06:56:29;;;;;;;9.18;8.35;;;26.00;99.90;;;;;;5292707;28;20032;-74
2023/08/07 06:59:00;;;;;;;10.43;9.57;;;26.00;99.90;;;;;;5292912;28;20028;-73
2023/08/07 07:01:32;;;;;;;10.57;9.77;;;26.10;99.90;;;;;;5292890;28;20081;-74
2023/08/07 07:04:03;;;;;;;10.70;9.82;;;26.10;99.90;;;;;;5292703;28;20023;-75
2023/08/07 07:06:34;;;;;;;12.35;9.80;;;26.10;99.90;;;;;;5292052;28;20015;-74
2023/08/07 07:09:05;;;;;;;11.70;10.57;;;26.10;99.90;;;;;;5292918;28;20553;-74
2023/08/07 07:11:36;;;;;;;10.43;9.57;;;26.10;99.90;;;;;;5292493;28;20103;-74
2023/08/07 07:14:06;;;;;;;10.98;9.98;;;26.10;99.90;;;;;;5292465;28;20031;-74
2023/08/07 07:16:37;;;;;;;11.30;8.38;;;26.40;99.90;;;;;;5292447;28;20043;-74
2023/08/07 07:19:09;;;;;;;11.20;10.32;;;26.80;99.90;;;;;;5292573;28;20417;-74
2023/08/07 07:21:41;;;;;;;12.05;10.98;;;26.60;99.90;;;;;;5292439;28;20027;-73
2023/08/07 07:24:12;;;;;;;12.68;11.48;;;26.60;99.90;;;;;;5292064;28;20031;-74
2023/08/07 07:26:43;;;;;;;12.60;11.40;;;26.60;99.90;;;;;;5291657;28;20023;-74
2023/08/07 07:29:13;;;;;;;13.68;12.68;;;26.80;99.90;;;;;;5292060;28;20022;-74
2023/08/07 07:31:44;;;;;;;12.75;11.50;;;26.80;99.90;;;;;;5291354;28;20023;-74
2023/08/07 07:34:15;;;;;;;12.38;11.10;;;26.90;99.90;;;;;;5291202;28;20023;-74
2023/08/07 07:36:46;;;;;;;12.98;11.90;;;27.00;99.90;;;;;;5291516;28;20028;-74
2023/08/07 07:39:17;;;;;;;11.98;10.82;;;27.10;99.90;;;;;;5291832;28;20103;-74
2023/08/07 07:41:47;;;;;;;10.40;9.60;;;27.30;99.90;;;;;;5291639;28;20125;-74
2023/08/07 07:44:18;;;;;;;10.48;9.15;;;27.50;99.90;;;;;;5291370;28;20592;-74
2023/08/07 07:46:49;;;;;;;10.82;9.93;;;27.50;99.90;;;;;;5291979;28;20103;-74
2023/08/07 07:49:20;;;;;;;12.75;11.65;;;27.50;99.90;;;;;;5291756;28;20545;-74
2023/08/07 07:51:51;;;;;;;12.73;11.73;;;27.30;99.90;;;;;;5291384;28;20107;-74
2023/08/07 07:54:22;;;;;;;13.77;12.57;;;27.50;99.90;;;;;;5291263;28;20103;-75
2023/08/07 07:56:52;;;;;;;14.10;12.85;;;27.60;99.90;;;;;;5290798;28;20027;-74
2023/08/07 07:59:23;;;;;;;12.93;11.77;;;27.70;99.90;;;;;;5290735;28;20031;-74
2023/08/07 08:01:54;;;;;;;10.32;9.52;;;27.90;99.90;;;;;;5290537;28;20539;-75
2023/08/07 08:04:25;;;;;;;8.95;8.20;;;27.90;99.90;;;;;;5290522;28;20069;-74
2023/08/07 08:06:56;;;;;;;7.97;7.22;;;27.90;99.90;;;;;;5290652;28;20032;-74
2023/08/07 08:09:27;;;;;;;8.23;7.63;;;28.00;99.90;;;;;;5290546;28;20028;-73
2023/08/07 08:11:58;;;;;;;7.97;7.28;;;28.00;99.90;;;;;;5272870;28;20651;-74
2023/08/07 08:14:29;;;;;;;8.00;7.30;;;28.10;99.90;;;;;;5272748;28;20560;-74
2023/08/07 08:17:00;;;;;;;7.65;6.95;;;28.10;99.90;;;;;;5272998;28;20024;-74
2023/08/07 08:19:31;;;;;;;7.07;6.47;;;28.20;99.90;;;;;;5271860;28;20501;-74
2023/08/07 08:22:01;;;;;;;8.30;7.63;;;28.40;99.90;;;;;;5283922;28;20024;-74
2023/08/07 08:24:32;;;;;;;7.82;7.20;;;28.40;99.90;;;;;;5251469;28;20041;-74
2023/08/07 08:27:03;;;;;;;8.13;7.43;;;28.50;99.90;;;;;;5268477;28;20017;-74
2023/08/07 08:29:35;;;;;;;7.97;7.15;;;28.60;99.90;;;;;;5268670;28;20107;-74
2023/08/07 08:32:06;;;;;;;8.82;8.23;;;28.50;99.90;;;;;;5272058;28;20066;-74
2023/08/07 08:34:37;;;;;;;9.05;8.35;;;28.50;99.90;;;;;;5268103;28;20107;-75
2023/08/07 08:37:08;;;;;;;14.00;9.48;;;28.50;99.90;;;;;;5268300;28;20111;-74
2023/08/07 08:39:39;;;;;;;10.13;9.30;;;28.60;99.90;;;;;;5267870;28;20035;-74
2023/08/07 08:42:14;;;;;;;10.00;9.05;;;28.80;99.90;;;;;;5268730;28;20560;-75
2023/08/07 08:44:52;;;;;;;10.02;9.25;;;28.70;99.90;;;;;;5268813;28;20090;-78
2023/08/07 08:47:25;;;;;;;9.50;8.80;;;28.90;99.90;;;;;;5269131;28;20019;-78
2023/08/07 08:50:06;;;;;;;9.73;8.88;;;29.10;99.90;;;;;;5269135;28;20024;-77
2023/08/07 08:52:41;;;;;;;9.48;8.55;;;28.90;99.90;;;;;;5269452;28;20048;-75
2023/08/07 08:55:13;;;;;;;8.57;6.88;;;28.90;99.90;;;;;;5269198;28;20039;-76
2023/08/07 08:57:44;;;;;;;6.22;5.63;;;28.90;99.90;;;;;;5268980;28;20031;-76
2023/08/07 09:00:20;;;;;;;7.82;6.60;;;29.20;99.90;;;;;;5268398;28;20140;-77
2023/08/07 09:02:52;;;;;;;9.18;5.93;;;28.50;99.90;;;;;;5268790;28;20045;-74
2023/08/07 09:05:23;;;;;;;8.77;6.13;;;29.00;99.90;;;;;;5268162;28;20059;-78
2023/08/07 09:07:55;;;;;;;6.80;6.30;;;29.10;99.90;;;;;;5268205;28;20604;-77
2023/08/07 09:10:27;;;;;;;7.22;6.63;;;29.10;99.90;;;;;;5267749;28;20032;-75
2023/08/07 09:13:04;;;;;;;6.93;6.38;;;29.20;99.90;;;;;;5267713;28;20459;-75
2023/08/07 09:15:38;;;;;;;7.18;6.47;;;29.40;99.90;;;;;;5250134;28;20078;-74
2023/08/07 09:18:11;;;;;;;6.82;6.22;;;29.60;99.90;;;;;;5249810;28;20028;-74
2023/08/07 09:20:42;;;;;;;6.95;6.53;;;29.70;99.90;;;;;;5268319;28;20016;-75
2023/08/07 09:23:14;;;;;;;7.47;6.88;;;29.60;99.90;;;;;;5268694;28;20414;-75
2023/08/07 09:25:46;;;;;;;7.30;6.80;;;29.60;99.90;;;;;;5268372;28;20017;-74
2023/08/07 09:28:16;;;;;;;8.55;7.85;;;29.70;99.90;;;;;;5268738;28;20082;-75
2023/08/07 09:30:47;;;;;;;8.52;7.57;;;29.80;99.90;;;;;;5250288;28;20016;-78
2023/08/07 09:36:00;;;;;;;7.25;6.65;;;29.80;99.90;;;;;;5512711;23;20057;-76
2023/08/07 09:38:32;;;;;;;7.75;7.15;;;29.90;99.90;;;;;;5185875;28;20030;-76
2023/08/07 09:41:04;;;;;;;7.20;6.60;;;30.00;99.90;;;;;;5185836;28;20695;-76
2023/08/07 09:43:36;;;;;;;6.75;6.18;;;29.80;99.90;;;;;;5185362;28;20030;-74
2023/08/07 09:46:07;;;;;;;7.05;6.38;;;30.00;99.90;;;;;;5185443;28;20045;-73
2023/08/07 09:48:42;;;;;;;7.55;6.70;;;30.20;99.90;;;;;;5185528;28;20084;-74
2023/08/07 09:51:13;;;;;;;7.40;5.75;;;30.20;99.90;;;;;;5185633;28;20497;-74
2023/08/07 09:53:46;;;;;;;6.60;6.00;;;30.20;99.90;;;;;;5185488;28;20037;-74
2023/08/07 09:56:17;;;;;;;6.50;6.05;;;30.30;99.90;;;;;;5185376;28;20045;-76
2023/08/07 09:58:48;;;;;;;6.85;5.75;;;30.20;99.90;;;;;;5184801;28;20030;-77
2023/08/07 10:01:19;;;;;;;7.40;6.30;;;30.20;99.90;;;;;;5184487;28;20022;-77
2023/08/07 10:03:50;;;;;;;8.10;6.25;;;30.20;99.90;;;;;;5184364;28;20167;-74
2023/08/07 10:06:22;;;;;;;6.32;5.80;;;30.30;99.90;;;;;;5184489;28;20022;-74
2023/08/07 10:08:54;;;;;;;6.05;5.45;;;30.50;99.90;;;;;;5184644;28;20045;-74
2023/08/07 10:11:26;;;;;;;9.82;5.70;;;30.50;99.90;;;;;;5184744;28;20033;-74
2023/08/07 10:13:58;;;;;;;6.78;6.18;;;30.70;99.90;;;;;;5183979;28;20543;-75
2023/08/07 10:16:30;;;;;;;6.05;5.57;;;30.70;99.90;;;;;;5185293;28;20040;-74
2023/08/07 10:19:01;;;;;;;6.47;5.63;;;30.40;99.90;;;;;;5185769;28;20022;-74
2023/08/07 10:21:37;;;;;;;6.72;6.10;;;29.90;99.90;;;;;;5185790;28;20505;-78
2023/08/07 10:24:11;;;;;;;7.03;5.72;;;30.30;99.90;;;;;;5185491;28;20026;-76
2023/08/07 10:26:44;;;;;;;6.55;5.68;;;30.50;99.90;;;;;;5185666;28;20029;-74
2023/08/07 10:29:19;;;;;;;5.65;5.22;;;30.60;99.90;;;;;;5185795;28;20080;-76
2023/08/07 10:31:52;;;;;;;7.25;5.00;;;30.60;99.90;;;;;;5185462;28;20022;-75
2023/08/07 10:34:23;;;;;;;5.93;5.50;;;30.60;99.90;;;;;;5184011;28;20045;-75
2023/08/07 10:36:54;;;;;;;6.18;4.88;;;30.60;99.90;;;;;;5184650;28;20462;-76
2023/08/07 10:39:26;;;;;;;6.40;4.70;;;30.60;99.90;;;;;;5185438;28;20033;-76
2023/08/07 10:41:57;;;;;;;8.02;4.60;;;30.70;99.90;;;;;;5185792;28;20091;-78
2023/08/07 10:44:31;;;;;;;4.90;4.50;;;31.00;99.90;;;;;;5188947;28;20470;-75
2023/08/07 10:47:02;;;;;;;4.60;4.20;;;30.70;99.90;;;;;;5188666;28;20037;-74
2023/08/07 10:49:42;;;;;;;4.90;4.40;;;30.70;99.90;;;;;;5188377;28;20485;-75
2023/08/07 10:52:14;;;;;;;5.45;4.70;;;30.90;99.90;;;;;;5188653;28;20044;-78
2023/08/07 10:54:48;;;;;;;5.80;4.88;;;30.80;99.90;;;;;;5187924;28;20037;-75
2023/08/07 10:57:19;;;;;;;7.43;4.60;;;30.50;99.90;;;;;;5187559;28;20061;-74
2023/08/07 11:00:00;;;;;;;4.70;4.18;;;30.70;99.90;;;;;;5187333;28;20014;-75
2023/08/07 11:02:36;;;;;;;4.45;4.05;;;30.90;99.90;;;;;;5187991;28;20109;-74
2023/08/07 11:05:07;;;;;;;5.40;4.88;;;31.10;99.90;;;;;;5188132;28;20026;-74
2023/08/07 11:07:41;;;;;;;5.18;4.50;;;31.00;99.90;;;;;;5188446;28;20029;-78
2023/08/07 11:10:16;;;;;;;5.20;4.70;;;31.00;99.90;;;;;;5188450;28;20029;-76
2023/08/07 11:12:49;;;;;;;7.20;5.10;;;31.00;99.90;;;;;;5188318;28;20026;-74
2023/08/07 11:15:19;;;;;;;7.32;4.55;;;31.00;99.90;;;;;;5188011;28;20041;-74
2023/08/07 11:17:50;;;;;;;6.88;4.57;;;31.00;99.90;;;;;;5188385;28;20018;-74
2023/08/07 11:20:21;;;;;;;13.57;4.68;;;30.70;99.90;;;;;;5188498;28;20155;-77
2023/08/07 11:22:54;;;;;;;7.22;4.82;;;30.10;99.90;;;;;;5188574;28;20105;-74
2023/08/07 11:25:26;;;;;;;9.45;7.15;;;29.50;99.90;;;;;;5188424;28;20481;-74
2023/08/07 11:27:58;;;;;;;6.47;5.75;;;29.90;99.90;;;;;;5188448;28;20493;-74
2023/08/07 11:30:29;;;;;;;6.60;6.10;;;29.70;99.90;;;;;;5188459;28;20036;-73
2023/08/07 11:33:00;;;;;;;12.55;6.38;;;30.00;99.90;;;;;;5187931;28;20026;-74
2023/08/07 11:35:31;;;;;;;8.13;5.70;;;30.10;99.90;;;;;;5187517;28;20111;-77
2023/08/07 11:38:02;;;;;;;6.20;5.70;;;30.20;99.90;;;;;;5187430;28;20032;-75
2023/08/07 11:40:32;;;;;;;8.25;5.32;;;30.30;99.90;;;;;;5187574;28;20026;-74
2023/08/07 11:43:03;;;;;;;10.98;5.47;;;30.40;99.90;;;;;;5187019;28;20030;-74
2023/08/07 11:45:35;;;;;;;6.78;5.47;;;30.40;99.90;;;;;;5186752;28;20030;-74
2023/08/07 11:48:05;;;;;;;6.28;5.70;;;30.40;99.90;;;;;;5186867;28;20026;-74
2023/08/07 11:50:37;;;;;;;6.18;5.65;;;30.50;99.90;;;;;;5186326;28;20037;-75
2023/08/07 11:53:08;;;;;;;10.27;9.30;;;30.50;99.90;;;;;;5187125;28;20161;-75
2023/08/07 11:55:56;;;;;;;6.68;5.47;;;30.40;99.90;;;;;;5186563;28;20124;-74
2023/08/07 11:58:41;;;;;;;6.82;6.25;;;30.40;99.90;;;;;;5185917;28;20478;-72
2023/08/07 12:01:14;;;;;;;6.22;5.72;;;29.90;99.90;;;;;;5187197;28;20081;-73
2023/08/07 12:04:08;;;;;;;6.30;5.70;;;30.10;99.90;;;;;;5187020;28;20164;-77
2023/08/07 12:06:52;;;;;;;5.68;5.28;;;30.30;99.90;;;;;;5185244;28;20057;-72
2023/08/07 12:09:22;;;;;;;6.78;5.40;;;30.40;99.90;;;;;;5186805;28;20084;-75
2023/08/07 12:11:59;;;;;;;13.40;12.02;;;30.50;99.90;;;;;;5186791;28;20022;-75
2023/08/07 12:14:30;;;;;;;7.63;6.32;;;30.70;99.90;;;;;;5185841;28;20030;-75
2023/08/07 12:17:02;;;;;;;6.47;5.97;;;30.60;99.90;;;;;;5185617;28;20034;-73
2023/08/07 12:19:38;;;;;;;6.45;5.20;;;30.70;99.90;;;;;;5185391;28;20062;-73
2023/08/07 12:22:10;;;;;;;5.68;5.18;;;30.40;99.90;;;;;;5185225;28;20121;-74
2023/08/07 12:24:42;;;;;;;6.07;5.53;;;30.20;99.90;;;;;;5185168;28;20022;-73
2023/08/07 12:27:13;;;;;;;6.07;5.65;;;30.30;99.90;;;;;;5185124;28;20118;-73
2023/08/07 12:29:44;;;;;;;6.00;5.40;;;30.70;99.90;;;;;;5185069;28;20030;-73
2023/08/07 12:32:15;;;;;;;5.30;4.90;;;30.80;99.90;;;;;;5185831;28;20040;-73
2023/08/07 12:34:45;;;;;;;6.70;5.20;;;30.60;99.90;;;;;;5185965;28;20557;-74
2023/08/07 12:37:16;;;;;;;7.22;4.50;;;30.70;99.90;;;;;;5186263;28;20084;-76
2023/08/07 12:39:47;;;;;;;5.43;4.40;;;30.80;99.90;;;;;;5186225;28;20095;-73
2023/08/07 12:42:18;;;;;;;5.95;4.78;;;30.90;99.90;;;;;;5186034;28;20022;-73
2023/08/07 12:44:49;;;;;;;6.07;4.10;;;30.80;99.90;;;;;;5186062;28;20030;-73
2023/08/07 12:47:19;;;;;;;6.63;4.03;;;30.70;99.90;;;;;;5186059;28;20037;-74
2023/08/07 12:49:50;;;;;;;4.78;4.38;;;31.10;99.90;;;;;;5185831;28;20075;-73
2023/08/07 12:52:21;;;;;;;4.53;3.95;;;31.00;99.90;;;;;;5186005;28;20032;-76
2023/08/07 12:54:52;;;;;;;4.85;4.32;;;30.40;99.90;;;;;;5185972;28;20030;-72
2023/08/07 12:57:23;;;;;;;8.35;4.97;;;30.10;99.90;;;;;;5185848;28;20076;-74
2023/08/07 12:59:53;;;;;;;5.70;5.20;;;29.90;99.90;;;;;;5186060;28;20036;-75
2023/08/07 13:02:24;;;;;;;6.20;5.57;;;29.90;99.90;;;;;;5185866;28;20065;-74
2023/08/07 13:04:56;;;;;;;6.80;6.10;;;30.00;99.90;;;;;;5185153;28;20030;-72
2023/08/07 13:07:26;;;;;;;6.25;5.65;;;29.80;99.90;;;;;;5185622;28;20366;-74